createdAt,value
2016-10-27T00:00:45.540Z,94.65
2016-10-27T00:01:45.507Z,94.37
2016-10-27T00:02:45.493Z,94.65
2016-10-27T00:03:45.433Z,94.37
2016-10-27T00:04:45.401Z,94.56
2016-10-27T00:05:45.359Z,94.27
2016-10-27T00:06:45.320Z,94.27
2016-10-27T00:07:45.281Z,94.56
2016-10-27T00:08:45.245Z,94.46
2016-10-27T00:09:45.212Z,94.46
2016-10-27T00:10:45.171Z,94.74
2016-10-27T00:11:45.137Z,94.84
2016-10-27T00:12:45.099Z,94.74
2016-10-27T00:13:45.060Z,94.89
2016-10-27T00:14:44.727Z,95.22
2016-10-27T00:15:44.988Z,94.93
2016-10-27T00:16:44.949Z,94.65
2016-10-27T00:17:44.912Z,94.74
2016-10-27T00:18:44.572Z,94.79
2016-10-27T00:19:44.537Z,95.12
2016-10-27T00:20:44.800Z,94.89
2016-10-27T00:21:44.783Z,95.08
2016-10-27T00:22:44.726Z,95.46
2016-10-27T00:23:44.688Z,95.08
2016-10-27T00:24:44.349Z,94.89
2016-10-27T00:25:44.616Z,95.17
2016-10-27T00:26:44.574Z,95.08
2016-10-27T00:27:44.540Z,95.27
2016-10-27T00:28:44.499Z,95.46
2016-10-27T00:29:44.467Z,95.65
2016-10-27T00:30:44.428Z,95.46
2016-10-27T00:31:44.392Z,95.46
2016-10-27T00:32:44.351Z,96.03
2016-10-27T00:33:44.315Z,96.22
2016-10-27T00:34:44.275Z,96.03
2016-10-27T00:35:44.237Z,96.12
2016-10-27T00:36:44.205Z,95.94
2016-10-27T00:37:44.167Z,96.03
2016-10-27T00:38:44.126Z,95.84
2016-10-27T00:39:44.088Z,96.03
2016-10-27T00:40:44.054Z,96.03
2016-10-27T00:41:44.015Z,95.75
2016-10-27T00:42:43.980Z,95.84
2016-10-27T00:43:43.941Z,95.84
2016-10-27T00:44:43.908Z,95.65
2016-10-27T00:45:43.869Z,95.75
2016-10-27T00:46:43.828Z,96.12
2016-10-27T00:47:43.788Z,96.31
2016-10-27T00:48:43.756Z,95.94
2016-10-27T00:49:43.413Z,96.36
2016-10-27T00:50:43.677Z,95.94
2016-10-27T00:51:43.641Z,96.22
2016-10-27T00:52:43.605Z,96.74
2016-10-27T00:53:43.564Z,96.36
2016-10-27T00:54:43.527Z,96.51
2016-10-27T00:55:43.486Z,96.26
2016-10-27T00:56:43.450Z,96.51
2016-10-27T00:57:43.413Z,96.36
2016-10-27T00:58:43.072Z,96.51
2016-10-27T00:59:43.037Z,96.51
2016-10-27T01:00:43.299Z,96.12
2016-10-27T01:01:43.263Z,96.6
2016-10-27T01:02:43.228Z,96.98
2016-10-27T01:03:42.886Z,96.7
2016-10-27T01:04:42.849Z,96.74
2016-10-27T01:05:43.113Z,96.89
2016-10-27T01:06:43.076Z,96.79
2016-10-27T01:07:43.037Z,96.79
2016-10-27T01:08:42.997Z,96.89
2016-10-27T01:09:42.958Z,96.79
2016-10-27T01:10:42.629Z,96.89
2016-10-27T01:11:42.920Z,96.89
2016-10-27T01:12:42.848Z,97.08
2016-10-27T01:13:42.811Z,96.98
2016-10-27T01:14:42.776Z,96.79
2016-10-27T01:15:42.433Z,96.79
2016-10-27T01:16:42.701Z,96.89
2016-10-27T01:17:42.358Z,97.08
2016-10-27T01:18:42.321Z,96.79
2016-10-27T01:19:42.582Z,96.79
2016-10-27T01:20:42.546Z,96.89
2016-10-27T01:21:42.512Z,96.7
2016-10-27T01:22:42.473Z,96.79
2016-10-27T01:23:42.438Z,96.89
2016-10-27T01:24:42.094Z,96.89
2016-10-27T01:25:42.358Z,96.41
2016-10-27T01:26:42.323Z,96.98
2016-10-27T01:27:42.285Z,96.6
2016-10-27T01:28:42.247Z,96.31
2016-10-27T01:29:42.209Z,96.51
2016-10-27T01:30:41.867Z,96.41
2016-10-27T01:31:41.841Z,96.51
2016-10-27T01:32:42.094Z,96.41
2016-10-27T01:33:41.760Z,96.7
2016-10-27T01:34:42.023Z,96.41
2016-10-27T01:35:41.983Z,96.41
2016-10-27T01:36:41.642Z,96.51
2016-10-27T01:37:41.911Z,96.79
2016-10-27T01:38:41.567Z,96.03
2016-10-27T01:39:41.831Z,96.6
2016-10-27T01:40:41.794Z,96.31
2016-10-27T01:41:41.758Z,95.94
2016-10-27T01:42:41.717Z,96.41
2016-10-27T01:43:41.681Z,96.41
2016-10-27T01:44:41.342Z,96.41
2016-10-27T01:45:41.607Z,96.31
2016-10-27T01:46:41.568Z,95.75
2016-10-27T01:47:41.273Z,95.94
2016-10-27T01:48:41.496Z,96.12
2016-10-27T01:49:41.455Z,95.75
2016-10-27T01:50:41.421Z,96.12
2016-10-27T01:51:41.381Z,96.22
2016-10-27T01:52:41.041Z,96.03
2016-10-27T01:53:41.004Z,96.03
2016-10-27T01:54:41.268Z,96.22
2016-10-27T01:55:41.236Z,95.84
2016-10-27T01:56:40.891Z,96.22
2016-10-27T01:57:41.156Z,95.94
2016-10-27T01:58:41.118Z,96.22
2016-10-27T01:59:40.780Z,96.22
2016-10-27T02:00:41.044Z,96.41
2016-10-27T02:01:41.004Z,96.03
2016-10-27T02:02:40.970Z,96.22
2016-10-27T02:03:40.932Z,96.22
2016-10-27T02:04:40.596Z,96.22
2016-10-27T02:05:40.557Z,96.12
2016-10-27T02:06:40.818Z,95.75
2016-10-27T02:07:40.778Z,95.94
2016-10-27T02:08:40.741Z,95.75
2016-10-27T02:09:40.702Z,96.12
2016-10-27T02:10:40.364Z,95.84
2016-10-27T02:11:40.635Z,96.12
2016-10-27T02:12:40.593Z,95.65
2016-10-27T02:13:40.552Z,96.22
2016-10-27T02:14:40.517Z,96.03
2016-10-27T02:15:40.478Z,96.12
2016-10-27T02:16:40.441Z,95.65
2016-10-27T02:17:40.404Z,95.75
2016-10-27T02:18:40.368Z,96.31
2016-10-27T02:19:40.331Z,96.41
2016-10-27T02:20:39.987Z,96.41
2016-10-27T02:21:40.251Z,96.22
2016-10-27T02:22:40.216Z,96.79
2016-10-27T02:23:40.181Z,96.79
2016-10-27T02:24:40.139Z,96.7
2016-10-27T02:25:39.804Z,96.51
2016-10-27T02:26:40.070Z,96.41
2016-10-27T02:27:40.031Z,96.41
2016-10-27T02:28:39.991Z,96.31
2016-10-27T02:29:39.956Z,96.7
2016-10-27T02:30:39.916Z,96.6
2016-10-27T02:31:39.880Z,96.79
2016-10-27T02:32:39.842Z,96.51
2016-10-27T02:33:39.806Z,96.6
2016-10-27T02:34:39.767Z,96.41
2016-10-27T02:35:39.429Z,96.51
2016-10-27T02:36:39.689Z,96.41
2016-10-27T02:37:39.652Z,96.6
2016-10-27T02:38:39.619Z,96.6
2016-10-27T02:39:39.578Z,96.6
2016-10-27T02:40:39.541Z,96.6
2016-10-27T02:41:39.507Z,96.41
2016-10-27T02:42:39.469Z,96.6
2016-10-27T02:43:39.428Z,96.89
2016-10-27T02:44:39.393Z,96.41
2016-10-27T02:45:39.360Z,96.41
2016-10-27T02:46:39.016Z,96.6
2016-10-27T02:47:39.289Z,96.41
2016-10-27T02:48:39.244Z,96.79
2016-10-27T02:49:39.206Z,96.41
2016-10-27T02:50:39.205Z,96.79
2016-10-27T02:51:39.129Z,96.12
2016-10-27T02:52:39.093Z,96.22
2016-10-27T02:53:39.061Z,96.41
2016-10-27T02:54:39.020Z,96.22
2016-10-27T02:55:38.982Z,96.22
2016-10-27T02:56:38.671Z,96.03
2016-10-27T02:57:38.908Z,96.31
2016-10-27T02:58:38.869Z,96.03
2016-10-27T02:59:38.833Z,96.31
2016-10-27T03:00:38.799Z,96.31
2016-10-27T03:01:38.758Z,96.22
2016-10-27T03:02:38.728Z,96.22
2016-10-27T03:03:38.678Z,96.31
2016-10-27T03:04:38.642Z,95.65
2016-10-27T03:05:38.606Z,95.94
2016-10-27T03:06:38.573Z,95.94
2016-10-27T03:07:38.534Z,96.22
2016-10-27T03:08:38.494Z,96.22
2016-10-27T03:09:38.456Z,96.03
2016-10-27T03:10:38.417Z,95.65
2016-10-27T03:11:38.380Z,96.03
2016-10-27T03:12:38.343Z,96.03
2016-10-27T03:13:38.305Z,95.75
2016-10-27T03:14:38.269Z,96.03
2016-10-27T03:15:38.230Z,96.03
2016-10-27T03:16:38.197Z,96.22
2016-10-27T03:17:37.853Z,95.56
2016-10-27T03:18:38.121Z,95.65
2016-10-27T03:19:38.097Z,96.03
2016-10-27T03:20:38.057Z,95.65
2016-10-27T03:21:38.009Z,96.03
2016-10-27T03:22:37.970Z,96.22
2016-10-27T03:23:37.635Z,96.03
2016-10-27T03:24:37.893Z,95.94
2016-10-27T03:25:37.859Z,95.94
2016-10-27T03:26:37.520Z,96.12
2016-10-27T03:27:37.786Z,96.12
2016-10-27T03:28:37.750Z,95.94
2016-10-27T03:29:37.708Z,95.94
2016-10-27T03:30:37.678Z,96.22
2016-10-27T03:31:37.635Z,96.12
2016-10-27T03:32:37.597Z,96.22
2016-10-27T03:33:37.560Z,96.03
2016-10-27T03:34:37.559Z,95.75
2016-10-27T03:35:37.486Z,95.94
2016-10-27T03:36:37.447Z,95.84
2016-10-27T03:37:37.408Z,96.12
2016-10-27T03:38:37.068Z,95.84
2016-10-27T03:39:37.338Z,95.65
2016-10-27T03:40:37.300Z,96.22
2016-10-27T03:41:37.258Z,96.22
2016-10-27T03:42:37.227Z,96.31
2016-10-27T03:43:37.186Z,96.7
2016-10-27T03:44:37.150Z,96.41
2016-10-27T03:45:37.144Z,96.79
2016-10-27T03:46:37.073Z,96.51
2016-10-27T03:47:37.035Z,96.41
2016-10-27T03:48:36.998Z,96.6
2016-10-27T03:49:36.967Z,96.84
2016-10-27T03:50:36.925Z,96.74
2016-10-27T03:51:36.885Z,96.46
2016-10-27T03:52:36.850Z,97.03
2016-10-27T03:53:36.818Z,96.84
2016-10-27T03:54:36.805Z,96.74
2016-10-27T03:55:36.435Z,96.46
2016-10-27T03:56:36.697Z,96.46
2016-10-27T03:57:36.661Z,96.74
2016-10-27T03:58:36.622Z,96.36
2016-10-27T03:59:36.285Z,96.74
2016-10-27T04:00:36.546Z,96.84
2016-10-27T04:01:36.516Z,97.41
2016-10-27T04:02:36.477Z,97.17
2016-10-27T04:03:36.435Z,97.13
2016-10-27T04:04:36.093Z,97.55
2016-10-27T04:05:36.360Z,97.27
2016-10-27T04:06:36.326Z,97.55
2016-10-27T04:07:36.282Z,97.93
2016-10-27T04:08:36.244Z,97.74
2016-10-27T04:09:36.206Z,97.55
2016-10-27T04:10:35.864Z,97.36
2016-10-27T04:11:36.130Z,97.74
2016-10-27T04:12:36.091Z,97.93
2016-10-27T04:13:36.052Z,98.69
2016-10-27T04:14:36.019Z,98.22
2016-10-27T04:15:35.977Z,97.93
2016-10-27T04:16:35.938Z,98.22
2016-10-27T04:17:35.902Z,98.31
2016-10-27T04:18:35.860Z,98.31
2016-10-27T04:19:35.822Z,98.6
2016-10-27T04:20:35.791Z,98.69
2016-10-27T04:21:35.749Z,98.69
2016-10-27T04:22:35.715Z,98.69
2016-10-27T04:23:35.368Z,98.55
2016-10-27T04:24:35.635Z,99.02
2016-10-27T04:25:35.629Z,98.83
2016-10-27T04:26:35.255Z,98.26
2016-10-27T04:27:35.518Z,98.83
2016-10-27T04:28:35.479Z,98.93
2016-10-27T04:29:35.140Z,99.11
2016-10-27T04:30:35.100Z,99.11
2016-10-27T04:31:35.361Z,99.3
2016-10-27T04:32:35.025Z,99.4
2016-10-27T04:33:35.289Z,99.4
2016-10-27T04:34:35.250Z,99.5
2016-10-27T04:35:35.214Z,99.21
2016-10-27T04:36:35.171Z,99.5
2016-10-27T04:37:35.135Z,99.5
2016-10-27T04:38:35.097Z,99.3
2016-10-27T04:39:35.055Z,98.83
2016-10-27T04:40:35.019Z,98.93
2016-10-27T04:41:34.984Z,99.21
2016-10-27T04:42:34.639Z,99.78
2016-10-27T04:43:34.598Z,99.69
2016-10-27T04:44:34.562Z,99.4
2016-10-27T04:45:34.829Z,99.78
2016-10-27T04:46:34.789Z,99.99
2016-10-27T04:47:34.749Z,99.59
2016-10-27T04:48:34.712Z,99.5
2016-10-27T04:49:34.674Z,99.69
2016-10-27T04:50:34.635Z,99.3
2016-10-27T04:51:34.295Z,99.69
2016-10-27T04:52:34.557Z,99.5
2016-10-27T04:53:34.549Z,99.69
2016-10-27T04:54:34.484Z,99.59
2016-10-27T04:55:34.143Z,99.69
2016-10-27T04:56:34.406Z,99.5
2016-10-27T04:57:34.366Z,99.4
2016-10-27T04:58:34.326Z,99.88
2016-10-27T04:59:34.286Z,99.59
2016-10-27T05:00:34.254Z,99.97
2016-10-27T05:01:34.211Z,99.4
2016-10-27T05:02:33.870Z,99.4
2016-10-27T05:03:34.136Z,99.59
2016-10-27T05:04:33.796Z,99.5
2016-10-27T05:05:34.057Z,99.59
2016-10-27T05:06:33.716Z,99.69
2016-10-27T05:07:33.979Z,99.5
2016-10-27T05:08:33.942Z,99.69
2016-10-27T05:09:33.904Z,99.4
2016-10-27T05:10:33.563Z,99.4
2016-10-27T05:11:33.832Z,99.59
2016-10-27T05:12:33.483Z,99.69
2016-10-27T05:13:33.454Z,99.69
2016-10-27T05:14:33.742Z,99.88
2016-10-27T05:15:33.371Z,99.5
2016-10-27T05:16:33.635Z,99.88
2016-10-27T05:17:33.596Z,99.69
2016-10-27T05:18:33.253Z,99.69
2016-10-27T05:19:33.517Z,99.5
2016-10-27T05:20:33.479Z,99.88
2016-10-27T05:21:33.441Z,99.4
2016-10-27T05:22:33.403Z,99.83
2016-10-27T05:23:33.060Z,99.69
2016-10-27T05:24:33.324Z,99.78
2016-10-27T05:25:32.988Z,99.92
2016-10-27T05:26:33.251Z,99.69
2016-10-27T05:27:33.209Z,99.73
2016-10-27T05:28:33.169Z,99.44
2016-10-27T05:29:33.131Z,99.92
2016-10-27T05:30:33.093Z,99.83
2016-10-27T05:31:32.749Z,99.99
2016-10-27T05:32:33.018Z,99.73
2016-10-27T05:33:32.976Z,99.83
2016-10-27T05:34:32.634Z,99.54
2016-10-27T05:35:32.594Z,99.35
2016-10-27T05:36:32.859Z,99.64
2016-10-27T05:37:32.826Z,99.83
2016-10-27T05:38:32.789Z,99.54
2016-10-27T05:39:32.742Z,99.99
2016-10-27T05:40:32.702Z,99.83
2016-10-27T05:41:32.667Z,99.44
2016-10-27T05:42:32.626Z,99.35
2016-10-27T05:43:32.588Z,99.99
2016-10-27T05:44:32.547Z,99.26
2016-10-27T05:45:32.510Z,99.64
2016-10-27T05:46:32.471Z,99.44
2016-10-27T05:47:32.467Z,99.64
2016-10-27T05:48:32.398Z,99.99
2016-10-27T05:49:32.353Z,99.99
2016-10-27T05:50:32.315Z,99.83
2016-10-27T05:51:32.277Z,99.99
2016-10-27T05:52:32.240Z,99.44
2016-10-27T05:53:32.198Z,99.54
2016-10-27T05:54:31.855Z,99.44
2016-10-27T05:55:32.118Z,99.35
2016-10-27T05:56:31.776Z,99.92
2016-10-27T05:57:32.043Z,99.68
2016-10-27T05:58:31.701Z,99.68
2016-10-27T05:59:31.660Z,99.68
2016-10-27T06:00:31.619Z,99.68
2016-10-27T06:01:31.885Z,99.97
2016-10-27T06:02:31.542Z,99.97
2016-10-27T06:03:31.515Z,99.87
2016-10-27T06:04:31.466Z,99.68
2016-10-27T06:05:31.727Z,99.4
2016-10-27T06:06:31.388Z,99.4
2016-10-27T06:07:31.652Z,99.4
2016-10-27T06:08:31.610Z,99.87
2016-10-27T06:09:31.576Z,99.49
2016-10-27T06:10:31.234Z,99.68
2016-10-27T06:11:31.496Z,99.58
2016-10-27T06:12:31.150Z,99.87
2016-10-27T06:13:31.416Z,99.49
2016-10-27T06:14:31.378Z,99.99
2016-10-27T06:15:31.035Z,99.99
2016-10-27T06:16:31.331Z,99.99
2016-10-27T06:17:31.257Z,99.99
2016-10-27T06:18:31.227Z,99.99
2016-10-27T06:19:31.182Z,99.99
2016-10-27T06:20:31.143Z,99.99
2016-10-27T06:21:31.102Z,99.99
2016-10-27T06:22:31.064Z,99.99
2016-10-27T06:23:30.726Z,99.99
2016-10-27T06:24:30.982Z,99.99
2016-10-27T06:25:30.945Z,99.99
2016-10-27T06:26:30.904Z,99.99
2016-10-27T06:27:30.867Z,99.99
2016-10-27T06:28:30.828Z,99.99
2016-10-27T06:29:30.788Z,99.99
2016-10-27T06:30:30.750Z,99.99
2016-10-27T06:31:30.711Z,99.99
2016-10-27T06:32:30.710Z,99.99
2016-10-27T06:33:30.632Z,99.99
2016-10-27T06:34:30.590Z,99.99
2016-10-27T06:35:30.552Z,99.99
2016-10-27T06:36:30.513Z,99.99
2016-10-27T06:37:30.469Z,99.99
2016-10-27T06:38:30.433Z,99.99
2016-10-27T06:39:30.403Z,99.99
2016-10-27T06:40:30.053Z,99.99
2016-10-27T06:41:30.014Z,99.99
2016-10-27T06:42:30.279Z,99.99
2016-10-27T06:43:30.238Z,99.99
2016-10-27T06:44:30.199Z,99.99
2016-10-27T06:45:30.161Z,99.99
2016-10-27T06:46:29.817Z,99.99
2016-10-27T06:47:30.081Z,99.99
2016-10-27T06:48:29.741Z,99.99
2016-10-27T06:49:29.701Z,99.99
2016-10-27T06:50:29.664Z,99.99
2016-10-27T06:51:29.925Z,99.99
2016-10-27T06:52:29.586Z,99.99
2016-10-27T06:53:29.852Z,99.99
2016-10-27T06:54:29.510Z,99.99
2016-10-27T06:55:29.772Z,99.99
2016-10-27T06:56:29.434Z,99.99
2016-10-27T06:57:29.693Z,99.99
2016-10-27T06:58:29.656Z,99.99
2016-10-27T06:59:29.619Z,99.99
2016-10-27T07:00:29.312Z,99.99
2016-10-27T07:01:29.540Z,99.99
2016-10-27T07:02:29.201Z,99.99
2016-10-27T07:03:29.468Z,99.99
2016-10-27T07:04:29.126Z,99.41
2016-10-27T07:05:29.390Z,99.69
2016-10-27T07:06:29.050Z,99.69
2016-10-27T07:07:29.315Z,99.5
2016-10-27T07:08:28.972Z,99.02
2016-10-27T07:09:29.235Z,99.12
2016-10-27T07:10:29.200Z,98.74
2016-10-27T07:11:28.857Z,98.69
2016-10-27T07:12:29.124Z,98.6
2016-10-27T07:13:29.084Z,98.22
2016-10-27T07:14:29.044Z,97.65
2016-10-27T07:15:29.008Z,97.08
2016-10-27T07:16:28.970Z,97.08
2016-10-27T07:17:28.631Z,96.79
2016-10-27T07:18:28.929Z,96.41
2016-10-27T07:19:28.862Z,95.84
2016-10-27T07:20:28.820Z,95.65
2016-10-27T07:21:28.480Z,95.46
2016-10-27T07:22:28.746Z,95.75
2016-10-27T07:23:28.710Z,95.17
2016-10-27T07:24:28.709Z,95.12
2016-10-27T07:25:28.634Z,94.65
2016-10-27T07:26:28.614Z,94.37
2016-10-27T07:27:28.559Z,93.89
2016-10-27T07:28:28.524Z,93.51
2016-10-27T07:29:28.487Z,93.22
2016-10-27T07:30:28.452Z,93.13
2016-10-27T07:31:28.109Z,92.84
2016-10-27T07:32:28.075Z,92.94
2016-10-27T07:33:28.337Z,92.94
2016-10-27T07:34:28.300Z,92.46
2016-10-27T07:35:27.962Z,92.65
2016-10-27T07:36:28.228Z,92.36
2016-10-27T07:37:28.189Z,92.27
2016-10-27T07:38:28.156Z,91.89
2016-10-27T07:39:28.115Z,91.94
2016-10-27T07:40:27.775Z,91.7
2016-10-27T07:41:27.740Z,91.89
2016-10-27T07:42:28.005Z,91.89
2016-10-27T07:43:27.970Z,91.94
2016-10-27T07:44:27.933Z,92.18
2016-10-27T07:45:27.895Z,92.32
2016-10-27T07:46:27.864Z,92.5
2016-10-27T07:47:27.821Z,91.94
2016-10-27T07:48:27.784Z,91.94
2016-10-27T07:49:27.749Z,92.13
2016-10-27T07:50:27.409Z,92.22
2016-10-27T07:51:27.675Z,91.94
2016-10-27T07:52:27.639Z,91.94
2016-10-27T07:53:27.601Z,91.84
2016-10-27T07:54:27.569Z,91.84
2016-10-27T07:55:27.226Z,91.55
2016-10-27T07:56:27.492Z,91.74
2016-10-27T07:57:27.153Z,91.74
2016-10-27T07:58:27.420Z,91.94
2016-10-27T07:59:27.381Z,91.17
2016-10-27T08:00:27.352Z,91.17
2016-10-27T08:01:27.309Z,91.55
2016-10-27T08:02:27.271Z,90.79
2016-10-27T08:03:26.935Z,90.93
2016-10-27T08:04:27.200Z,90.45
2016-10-27T08:05:27.164Z,90.64
2016-10-27T08:06:26.825Z,90.64
2016-10-27T08:07:26.790Z,90.55
2016-10-27T08:08:26.755Z,89.79
2016-10-27T08:09:27.022Z,89.79
2016-10-27T08:10:26.983Z,89.31
2016-10-27T08:11:26.947Z,88.78
2016-10-27T08:12:26.909Z,88.5
2016-10-27T08:13:26.881Z,88.88
2016-10-27T08:14:26.836Z,88.59
2016-10-27T08:15:26.809Z,88.02
2016-10-27T08:16:26.769Z,88.12
2016-10-27T08:17:26.729Z,88.31
2016-10-27T08:18:26.729Z,88.12
2016-10-27T08:19:26.659Z,87.93
2016-10-27T08:20:26.623Z,87.64
2016-10-27T08:21:26.286Z,87.83
2016-10-27T08:22:26.552Z,87.93
2016-10-27T08:23:26.515Z,88.02
2016-10-27T08:24:26.477Z,88.12
2016-10-27T08:25:26.450Z,88.12
2016-10-27T08:26:26.408Z,87.93
2016-10-27T08:27:26.369Z,88.12
2016-10-27T08:28:26.030Z,87.64
2016-10-27T08:29:25.998Z,88.02
2016-10-27T08:30:26.272Z,87.26
2016-10-27T08:31:26.232Z,87.54
2016-10-27T08:32:25.890Z,86.98
2016-10-27T08:33:25.856Z,86.54
2016-10-27T08:34:26.119Z,86.63
2016-10-27T08:35:26.083Z,86.63
2016-10-27T08:36:26.053Z,86.16
2016-10-27T08:37:26.016Z,85.58
2016-10-27T08:38:25.979Z,85.01
2016-10-27T08:39:25.945Z,85.11
2016-10-27T08:40:25.909Z,84.48
2016-10-27T08:41:25.870Z,84.96
2016-10-27T08:42:25.567Z,84.29
2016-10-27T08:43:25.806Z,83.62
2016-10-27T08:44:25.765Z,82.95
2016-10-27T08:45:25.735Z,82.61
2016-10-27T08:46:25.394Z,81.76
2016-10-27T08:47:25.661Z,80.74
2016-10-27T08:48:25.631Z,80.55
2016-10-27T08:49:25.591Z,80.07
2016-10-27T08:50:25.557Z,78.87
2016-10-27T08:51:25.222Z,77.44
2016-10-27T08:52:25.489Z,76.67
2016-10-27T08:53:25.454Z,76.1
2016-10-27T08:54:25.420Z,76.29
2016-10-27T08:55:25.384Z,76.29
2016-10-27T08:56:25.360Z,76.29
2016-10-27T08:57:25.321Z,75.18
2016-10-27T08:58:25.286Z,74.7
2016-10-27T08:59:25.253Z,73.65
2016-10-27T09:00:25.214Z,72.79
2016-10-27T09:01:25.189Z,72.25
2016-10-27T09:02:25.150Z,72.06
2016-10-27T09:03:25.118Z,72.25
2016-10-27T09:04:25.083Z,70.81
2016-10-27T09:05:25.051Z,69.99
2016-10-27T09:06:24.716Z,69.42
2016-10-27T09:07:24.987Z,69.54
2016-10-27T09:08:24.951Z,69.35
2016-10-27T09:09:24.919Z,69.07
2016-10-27T09:10:24.888Z,68.97
2016-10-27T09:11:25.205Z,68.4
2016-10-27T09:12:24.825Z,67.82
2016-10-27T09:13:24.792Z,67.05
2016-10-27T09:14:24.761Z,66.96
2016-10-27T09:15:24.726Z,65.84
2016-10-27T09:16:24.393Z,63.96
2016-10-27T09:17:24.665Z,63.32
2016-10-27T09:18:24.662Z,62.16
2016-10-27T09:19:24.598Z,60.38
2016-10-27T09:20:24.568Z,58.48
2016-10-27T09:21:24.536Z,56.88
2016-10-27T09:22:24.511Z,56.59
2016-10-27T09:23:24.512Z,56.68
2016-10-27T09:24:24.443Z,56.78
2016-10-27T09:25:24.417Z,56.4
2016-10-27T09:26:24.380Z,56.88
2016-10-27T09:27:24.355Z,56.68
2016-10-27T09:28:24.043Z,56.04
2016-10-27T09:29:24.292Z,55.18
2016-10-27T09:30:23.966Z,55.98
2016-10-27T09:31:24.232Z,54.56
2016-10-27T09:32:24.201Z,54.36
2016-10-27T09:33:24.171Z,53.98
2016-10-27T09:34:24.139Z,53.53
2016-10-27T09:35:24.114Z,53.59
2016-10-27T09:36:23.782Z,53.69
2016-10-27T09:37:23.753Z,54.14
2016-10-27T09:38:24.025Z,54.82
2016-10-27T09:39:24.006Z,54.43
2016-10-27T09:40:23.963Z,54.53
2016-10-27T09:41:23.935Z,53.86
2016-10-27T09:42:23.605Z,53.57
2016-10-27T09:43:23.576Z,52.15
2016-10-27T09:44:23.851Z,50.06
2016-10-27T09:45:23.521Z,48.86
2016-10-27T09:46:23.798Z,48.3
2016-10-27T09:47:23.460Z,47.72
2016-10-27T09:48:23.738Z,46.01
2016-10-27T09:49:23.405Z,44.59
2016-10-27T09:50:23.678Z,42.31
2016-10-27T09:51:23.651Z,40.98
2016-10-27T09:52:23.321Z,39.86
2016-10-27T09:53:23.627Z,38.45
2016-10-27T09:54:23.569Z,36.52
2016-10-27T09:55:23.542Z,35.86
2016-10-27T09:56:23.519Z,34.99
2016-10-27T09:57:23.187Z,34.43
2016-10-27T09:58:23.158Z,33.38
2016-10-27T09:59:23.438Z,33.28
2016-10-27T10:00:23.414Z,33.84
2016-10-27T10:01:23.085Z,34.39
2016-10-27T10:02:23.360Z,35.64
2016-10-27T10:03:23.336Z,36
2016-10-27T10:04:23.308Z,36
2016-10-27T10:05:22.984Z,36.08
2016-10-27T10:06:23.294Z,35.99
2016-10-27T10:07:23.238Z,35.99
2016-10-27T10:08:23.210Z,36.47
2016-10-27T10:09:23.185Z,36.74
2016-10-27T10:10:23.155Z,36.92
2016-10-27T10:11:23.137Z,37.5
2016-10-27T10:12:23.105Z,37.1
2016-10-27T10:13:23.079Z,36.5
2016-10-27T10:14:23.057Z,36.77
2016-10-27T10:15:23.028Z,36.38
2016-10-27T10:16:22.698Z,36.38
2016-10-27T10:17:22.985Z,36.87
2016-10-27T10:18:22.949Z,38.01
2016-10-27T10:19:22.922Z,38.21
2016-10-27T10:20:22.892Z,37.83
2016-10-27T10:21:22.867Z,35.14
2016-10-27T10:22:22.542Z,34.76
2016-10-27T10:23:22.515Z,34.47
2016-10-27T10:24:22.791Z,33.81
2016-10-27T10:25:22.762Z,33.05
2016-10-27T10:26:22.734Z,32.6
2016-10-27T10:27:22.707Z,31.67
2016-10-27T10:28:22.693Z,31.59
2016-10-27T10:29:22.654Z,32.17
2016-10-27T10:30:22.332Z,30.99
2016-10-27T10:31:22.601Z,29.83
2016-10-27T10:32:22.584Z,30.21
2016-10-27T10:33:22.246Z,31.65
2016-10-27T10:34:22.223Z,32.21
2016-10-27T10:35:22.197Z,33.09
2016-10-27T10:36:22.475Z,33.95
2016-10-27T10:37:22.447Z,34.81
2016-10-27T10:38:22.427Z,35.86
2016-10-27T10:39:22.095Z,35.74
2016-10-27T10:40:22.369Z,34.47
2016-10-27T10:41:22.344Z,35.98
2016-10-27T10:42:22.016Z,37.58
2016-10-27T10:43:21.987Z,38.33
2016-10-27T10:44:22.264Z,39.09
2016-10-27T10:45:22.238Z,40.31
2016-10-27T10:46:22.209Z,41.16
2016-10-27T10:47:22.182Z,42.22
2016-10-27T10:48:22.157Z,43.47
2016-10-27T10:49:22.129Z,44.51
2016-10-27T10:50:22.107Z,45.18
2016-10-27T10:51:22.073Z,46.23
2016-10-27T10:52:22.042Z,46.21
2016-10-27T10:53:22.014Z,46.89
2016-10-27T10:54:21.986Z,47.66
2016-10-27T10:55:21.655Z,47.46
2016-10-27T10:56:21.626Z,48.13
2016-10-27T10:57:21.900Z,47.44
2016-10-27T10:58:21.871Z,48.49
2016-10-27T10:59:21.839Z,48.4
2016-10-27T11:00:21.508Z,48.47
2016-10-27T11:01:21.779Z,48.85
2016-10-27T11:02:21.753Z,49.82
2016-10-27T11:03:21.724Z,49.52
2016-10-27T11:04:21.690Z,49.62
2016-10-27T11:05:21.672Z,49.72
2016-10-27T11:06:21.631Z,49.24
2016-10-27T11:07:21.600Z,49.79
2016-10-27T11:08:21.571Z,50.08
2016-10-27T11:09:21.539Z,49.6
2016-10-27T11:10:21.205Z,49.88
2016-10-27T11:11:21.478Z,49.98
2016-10-27T11:12:21.449Z,49.69
2016-10-27T11:13:21.419Z,50.08
2016-10-27T11:14:21.405Z,50.37
2016-10-27T11:15:21.354Z,51.01
2016-10-27T11:16:21.324Z,51.04
2016-10-27T11:17:21.304Z,51.49
2016-10-27T11:18:21.261Z,51.59
2016-10-27T11:19:21.231Z,51.2
2016-10-27T11:20:21.199Z,52.26
2016-10-27T11:21:21.166Z,51.78
2016-10-27T11:22:21.140Z,52.26
2016-10-27T11:23:21.120Z,52.83
2016-10-27T11:24:21.072Z,52.83
2016-10-27T11:25:21.046Z,53.22
2016-10-27T11:26:21.011Z,53.22
2016-10-27T11:27:20.696Z,53.41
2016-10-27T11:28:20.956Z,53.6
2016-10-27T11:29:20.923Z,53.99
2016-10-27T11:30:20.584Z,53.79
2016-10-27T11:31:20.857Z,54.08
2016-10-27T11:32:20.825Z,53.89
2016-10-27T11:33:20.490Z,53.99
2016-10-27T11:34:20.759Z,53.89
2016-10-27T11:35:20.725Z,53.99
2016-10-27T11:36:20.396Z,53.99
2016-10-27T11:37:20.664Z,53.7
2016-10-27T11:38:20.633Z,53.96
2016-10-27T11:39:20.300Z,54.66
2016-10-27T11:40:20.569Z,54.37
2016-10-27T11:41:20.540Z,54.75
2016-10-27T11:42:20.511Z,54.75
2016-10-27T11:43:20.476Z,54.75
2016-10-27T11:44:20.444Z,54.37
2016-10-27T11:45:20.412Z,54.46
2016-10-27T11:46:20.079Z,53.79
2016-10-27T11:47:20.348Z,52.74
2016-10-27T11:48:20.015Z,52.07
2016-10-27T11:49:20.284Z,51.97
2016-10-27T11:50:19.951Z,51.95
2016-10-27T11:51:20.220Z,52.33
2016-10-27T11:52:20.193Z,52.14
2016-10-27T11:53:19.853Z,52.59
2016-10-27T11:54:20.124Z,52.4
2016-10-27T11:55:19.789Z,52.87
2016-10-27T11:56:19.754Z,52.97
2016-10-27T11:57:19.727Z,53.26
2016-10-27T11:58:19.997Z,53.16
2016-10-27T11:59:19.665Z,53.93
2016-10-27T12:00:19.932Z,53.23
2016-10-27T12:01:19.900Z,53.07
2016-10-27T12:02:19.868Z,52.97
2016-10-27T12:03:19.837Z,52.5
2016-10-27T12:04:19.803Z,52.78
2016-10-27T12:05:19.770Z,52.81
2016-10-27T12:06:19.743Z,52.23
2016-10-27T12:07:19.705Z,52.91
2016-10-27T12:08:19.676Z,52.14
2016-10-27T12:09:19.655Z,51.95
2016-10-27T12:10:19.616Z,52.23
2016-10-27T12:11:19.580Z,52.07
2016-10-27T12:12:19.567Z,51.49
2016-10-27T12:13:19.515Z,51.1
2016-10-27T12:14:19.489Z,50.73
2016-10-27T12:15:19.451Z,50.63
2016-10-27T12:16:19.117Z,50.73
2016-10-27T12:17:19.391Z,50.05
2016-10-27T12:18:19.361Z,50.24
2016-10-27T12:19:19.324Z,50.32
2016-10-27T12:20:19.029Z,50.22
2016-10-27T12:21:18.959Z,50.15
2016-10-27T12:22:18.928Z,50.34
2016-10-27T12:23:19.196Z,50.24
2016-10-27T12:24:19.179Z,50.53
2016-10-27T12:25:19.136Z,50.15
2016-10-27T12:26:19.102Z,50.94
2016-10-27T12:27:18.773Z,50.75
2016-10-27T12:28:18.737Z,50.65
2016-10-27T12:29:19.008Z,50.37
2016-10-27T12:30:19.025Z,51.04
2016-10-27T12:31:18.982Z,50.75
2016-10-27T12:32:18.915Z,50.37
2016-10-27T12:33:18.581Z,50.84
2016-10-27T12:34:18.550Z,51.04
2016-10-27T12:35:18.818Z,50.46
2016-10-27T12:36:18.786Z,51.25
2016-10-27T12:37:18.756Z,49.88
2016-10-27T12:38:18.732Z,50.37
2016-10-27T12:39:18.388Z,50.37
2016-10-27T12:40:18.360Z,50.65
2016-10-27T12:41:18.627Z,51.14
2016-10-27T12:42:18.296Z,51.04
2016-10-27T12:43:18.568Z,50.56
2016-10-27T12:44:18.534Z,50.56
2016-10-27T12:45:18.506Z,50.75
2016-10-27T12:46:18.474Z,50.37
2016-10-27T12:47:18.439Z,50.65
2016-10-27T12:48:18.111Z,50.75
2016-10-27T12:49:18.077Z,50.75
2016-10-27T12:50:18.045Z,50.56
2016-10-27T12:51:18.317Z,50.46
2016-10-27T12:52:18.312Z,50.34
2016-10-27T12:53:17.953Z,51.2
2016-10-27T12:54:18.222Z,51.3
2016-10-27T12:55:18.189Z,51.3